Time;durP1;ratioP1;P1;durP2;ratioP2;P2;SDS_P1;SDS_P2;PMS_P1;PMS_P2;Temp;Humidity;BMP_temperature;BMP_pressure;BME280_temperature;BME280_humidity;BME280_pressure;Samples;Min_cycle;Max_cycle;Signal;HPM_P1;HPM_P2
2022/06/17 00:02:01;;;;;;;13.25;10.20;;;26.90;99.90;;;;;;4164840;28;20060;-65
2022/06/17 00:04:09;;;;;;;13.32;10.07;;;26.80;99.90;;;;;;4181933;28;20071;-66
2022/06/17 00:06:16;;;;;;;16.38;11.98;;;26.90;99.90;;;;;;4177437;28;20065;-66
2022/06/17 00:08:27;;;;;;;14.82;12.77;;;26.90;99.90;;;;;;4177683;28;20049;-65
2022/06/17 00:10:33;;;;;;;15.27;12.10;;;26.90;99.90;;;;;;4177359;28;20033;-65
2022/06/17 00:12:38;;;;;;;14.10;11.00;;;27.00;99.90;;;;;;4181419;28;20595;-66
2022/06/17 00:17:07;;;;;;;17.17;9.55;;;27.10;99.90;;;;;;4169991;28;20060;-66
2022/06/17 00:19:12;;;;;;;12.35;9.55;;;27.00;99.90;;;;;;4177679;28;20095;-66
2022/06/17 00:21:27;;;;;;;11.45;8.75;;;26.90;99.90;;;;;;4174952;28;20041;-66
2022/06/17 00:23:37;;;;;;;10.40;7.82;;;27.20;99.90;;;;;;4176870;28;20056;-66
2022/06/17 00:25:41;;;;;;;11.48;7.63;;;27.20;99.90;;;;;;4175965;28;20053;-66
2022/06/17 00:27:48;;;;;;;10.93;6.85;;;27.30;99.90;;;;;;4177406;28;20444;-66
2022/06/17 00:29:53;;;;;;;9.43;7.28;;;27.40;99.90;;;;;;4159965;28;20115;-66
2022/06/17 00:31:58;;;;;;;11.65;7.50;;;27.40;99.90;;;;;;4174943;28;20055;-66
2022/06/17 00:34:03;;;;;;;9.50;6.80;;;27.40;99.90;;;;;;4178684;28;20041;-65
2022/06/17 00:36:14;;;;;;;8.98;6.55;;;27.20;99.90;;;;;;4170243;28;20076;-67
2022/06/17 00:38:23;;;;;;;11.43;7.07;;;27.30;99.90;;;;;;4176273;28;20127;-65
2022/06/17 00:40:32;;;;;;;10.00;6.82;;;27.40;99.90;;;;;;4180223;28;20137;-65
2022/06/17 00:42:51;;;;;;;9.20;6.80;;;27.50;99.90;;;;;;4187056;28;20049;-65
2022/06/17 00:45:00;;;;;;;7.43;6.10;;;27.60;99.90;;;;;;4180502;28;20466;-66
2022/06/17 00:47:15;;;;;;;10.55;6.53;;;27.80;99.90;;;;;;4179361;28;20052;-66
2022/06/17 00:49:47;;;;;;;9.20;6.30;;;27.80;99.90;;;;;;4154650;28;20081;-66
2022/06/17 00:52:05;;;;;;;11.07;6.68;;;27.70;99.90;;;;;;4176185;28;20106;-65
2022/06/17 00:54:26;;;;;;;13.32;6.65;;;27.70;99.90;;;;;;4164038;28;20061;-66
2022/06/17 00:56:35;;;;;;;12.10;7.05;;;27.70;99.90;;;;;;4173480;28;20114;-66
2022/06/17 00:59:13;;;;;;;7.78;5.90;;;27.80;99.90;;;;;;4175434;28;20087;-67
2022/06/17 01:01:18;;;;;;;8.95;6.20;;;27.90;99.90;;;;;;4197457;28;20053;-65
2022/06/17 01:03:31;;;;;;;12.25;5.47;;;28.10;99.90;;;;;;4185725;28;20132;-66
2022/06/17 01:05:41;;;;;;;8.30;5.80;;;28.30;99.90;;;;;;4162480;28;20572;-67
2022/06/17 01:07:56;;;;;;;9.15;5.80;;;28.30;99.90;;;;;;4173585;28;20044;-64
2022/06/17 01:10:09;;;;;;;7.70;5.28;;;28.40;99.90;;;;;;4170612;28;20932;-67
2022/06/17 01:12:49;;;;;;;7.47;5.22;;;28.50;99.90;;;;;;4171580;28;20065;-67
2022/06/17 01:15:09;;;;;;;12.90;5.68;;;28.50;99.90;;;;;;4170813;28;20501;-64
2022/06/17 01:17:18;;;;;;;12.20;6.70;;;28.60;99.90;;;;;;4170882;28;20550;-64
2022/06/17 01:19:41;;;;;;;8.30;5.80;;;28.70;99.90;;;;;;4184879;28;20873;-67
2022/06/17 01:22:44;;;;;;;8.77;5.65;;;28.70;99.90;;;;;;4168774;28;20063;-66
2022/06/17 01:24:54;;;;;;;7.70;5.70;;;28.80;99.90;;;;;;4136651;28;20480;-66
2022/06/17 01:26:59;;;;;;;10.02;5.72;;;28.90;99.90;;;;;;4175985;28;20519;-66
2022/06/17 01:29:12;;;;;;;8.55;5.28;;;29.00;99.90;;;;;;4171458;28;20041;-67
2022/06/17 01:31:18;;;;;;;8.80;5.35;;;29.10;99.90;;;;;;4161197;28;20103;-66
2022/06/17 01:33:31;;;;;;;7.72;5.30;;;29.20;99.90;;;;;;4168891;28;20055;-66
2022/06/17 01:35:52;;;;;;;8.07;5.50;;;29.30;99.90;;;;;;4177529;28;20048;-67
2022/06/17 01:37:59;;;;;;;8.55;5.28;;;29.40;99.90;;;;;;4176899;28;20047;-66
2022/06/17 01:40:06;;;;;;;9.30;5.53;;;29.50;99.90;;;;;;4178761;28;20068;-66
2022/06/17 01:42:12;;;;;;;7.65;5.35;;;29.50;99.90;;;;;;4178388;28;20126;-67
2022/06/17 01:44:20;;;;;;;8.80;5.63;;;29.50;99.90;;;;;;4186868;28;20630;-66
2022/06/17 01:46:28;;;;;;;9.75;5.40;;;29.60;99.90;;;;;;4187548;28;20502;-67
2022/06/17 01:48:48;;;;;;;8.57;5.22;;;29.70;99.90;;;;;;4194044;28;20082;-67
2022/06/17 01:50:56;;;;;;;8.60;5.78;;;29.80;99.90;;;;;;4178368;28;20095;-66
2022/06/17 01:53:10;;;;;;;9.75;6.30;;;29.70;99.90;;;;;;4177342;28;20040;-66
2022/06/17 01:55:20;;;;;;;6.47;5.13;;;29.80;99.90;;;;;;4178277;28;20044;-66
2022/06/17 01:57:50;;;;;;;10.00;5.43;;;29.70;99.90;;;;;;4193337;28;20049;-67
2022/06/17 02:00:05;;;;;;;9.85;5.57;;;29.70;99.90;;;;;;4177776;28;20045;-66
2022/06/17 02:02:18;;;;;;;8.70;5.35;;;29.80;99.90;;;;;;4178391;28;20548;-66
2022/06/17 02:04:32;;;;;;;9.77;5.47;;;29.90;99.90;;;;;;4185466;28;20110;-65
2022/06/17 02:07:11;;;;;;;6.35;5.63;;;30.00;99.90;;;;;;4178570;28;20045;-67
2022/06/17 02:09:19;;;;;;;7.78;5.40;;;30.10;99.90;;;;;;4178060;28;20454;-66
2022/06/17 02:11:33;;;;;;;8.45;5.18;;;30.20;99.90;;;;;;4178959;28;20044;-66
2022/06/17 02:13:47;;;;;;;8.00;5.47;;;30.30;99.90;;;;;;4157126;28;20052;-66
2022/06/17 02:16:06;;;;;;;7.75;5.28;;;30.30;99.90;;;;;;4178910;28;20387;-66
2022/06/17 02:18:32;;;;;;;9.13;5.30;;;30.40;99.90;;;;;;4179052;28;20040;-66
2022/06/17 02:20:43;;;;;;;8.52;5.32;;;30.50;99.90;;;;;;4170235;28;20057;-67
2022/06/17 02:22:50;;;;;;;8.43;4.95;;;30.60;99.90;;;;;;4180261;28;20048;-67
2022/06/17 02:25:05;;;;;;;7.68;5.00;;;30.70;99.90;;;;;;4177750;28;20045;-67
2022/06/17 02:27:15;;;;;;;6.57;5.03;;;30.80;99.90;;;;;;4178369;28;20151;-67
2022/06/17 02:29:24;;;;;;;6.78;4.45;;;30.90;99.90;;;;;;4181497;28;20041;-66
2022/06/17 02:31:34;;;;;;;9.80;5.30;;;31.00;99.90;;;;;;4178180;28;20060;-67
2022/06/17 02:33:49;;;;;;;7.00;5.07;;;31.00;99.90;;;;;;4182654;28;20071;-67
2022/06/17 02:36:00;;;;;;;7.57;5.32;;;31.10;99.90;;;;;;4170149;28;20729;-66
2022/06/17 02:38:10;;;;;;;7.13;5.10;;;31.10;99.90;;;;;;4170055;28;20041;-66
2022/06/17 02:40:33;;;;;;;9.50;5.43;;;31.20;99.90;;;;;;4178648;28;20060;-66
2022/06/17 02:42:40;;;;;;;7.30;5.38;;;31.30;99.90;;;;;;4177540;28;20041;-66
2022/06/17 02:44:48;;;;;;;8.35;5.45;;;31.30;99.90;;;;;;4176568;28;21814;-66
2022/06/17 02:46:53;;;;;;;8.65;5.00;;;31.30;99.90;;;;;;4177714;28;20476;-66
2022/06/17 02:49:01;;;;;;;13.80;5.30;;;31.30;99.90;;;;;;4176503;28;20586;-65
2022/06/17 02:51:14;;;;;;;17.85;5.72;;;31.30;99.90;;;;;;4170735;28;20095;-66
2022/06/17 02:53:26;;;;;;;11.88;5.78;;;31.40;99.90;;;;;;4160532;28;20060;-66
2022/06/17 02:55:33;;;;;;;9.00;5.60;;;31.30;99.90;;;;;;4176855;28;20044;-67
2022/06/17 02:57:39;;;;;;;7.47;5.40;;;31.30;99.90;;;;;;4161175;28;20049;-66
2022/06/17 02:59:58;;;;;;;7.43;5.35;;;31.50;99.90;;;;;;4156544;28;20038;-66
2022/06/17 03:02:34;;;;;;;13.02;6.43;;;31.40;99.90;;;;;;4177104;28;20045;-67
2022/06/17 03:05:00;;;;;;;7.60;5.45;;;31.60;99.90;;;;;;4163160;28;20080;-67
2022/06/17 03:07:14;;;;;;;8.90;5.93;;;31.70;99.90;;;;;;4177422;28;20057;-67
2022/06/17 03:09:30;;;;;;;8.10;5.40;;;31.60;99.90;;;;;;4183272;28;20111;-66
2022/06/17 03:11:36;;;;;;;7.30;5.00;;;31.50;99.90;;;;;;4177177;28;20048;-67
2022/06/17 03:13:47;;;;;;;8.25;4.55;;;31.30;99.90;;;;;;4193449;28;20045;-66
2022/06/17 03:15:52;;;;;;;4.88;4.10;;;31.40;99.60;;;;;;4176958;28;20124;-67
2022/06/17 03:17:59;;;;;;;6.80;4.30;;;31.60;99.30;;;;;;4177258;28;20122;-66
2022/06/17 03:20:05;;;;;;;7.18;4.63;;;31.70;99.00;;;;;;4175898;28;20132;-66
2022/06/17 03:22:11;;;;;;;6.80;4.05;;;31.70;99.70;;;;;;4176537;28;20063;-67
2022/06/17 03:24:49;;;;;;;7.50;4.57;;;31.80;99.00;;;;;;4176521;28;20052;-66
2022/06/17 03:27:03;;;;;;;7.25;4.57;;;31.90;99.90;;;;;;4176690;28;20492;-66
2022/06/17 03:29:09;;;;;;;5.25;4.30;;;31.90;98.90;;;;;;4163866;28;20059;-66
2022/06/17 03:31:42;;;;;;;5.60;4.25;;;32.00;98.40;;;;;;4192771;28;20056;-67
2022/06/17 03:33:55;;;;;;;6.85;4.28;;;31.80;97.60;;;;;;4187866;28;20057;-66
2022/06/17 03:36:19;;;;;;;8.23;4.25;;;31.90;98.20;;;;;;4161703;28;20095;-66
2022/06/17 03:38:46;;;;;;;7.18;4.10;;;32.00;98.20;;;;;;4194097;28;20047;-66
2022/06/17 03:40:59;;;;;;;7.47;4.25;;;32.00;97.90;;;;;;4176259;28;20036;-65
2022/06/17 03:43:09;;;;;;;8.05;4.50;;;32.00;98.20;;;;;;4177260;28;20044;-65
2022/06/17 03:45:45;;;;;;;6.43;4.13;;;32.10;98.50;;;;;;4152211;28;20104;-66
2022/06/17 03:48:26;;;;;;;6.80;4.32;;;32.20;98.80;;;;;;4170734;28;20122;-66
2022/06/17 03:50:34;;;;;;;7.38;4.03;;;32.00;98.90;;;;;;4169094;28;20052;-66
2022/06/17 03:52:52;;;;;;;6.38;4.18;;;32.10;98.80;;;;;;4153332;28;20096;-66
2022/06/17 03:55:05;;;;;;;6.43;4.55;;;32.10;98.10;;;;;;4156765;28;20053;-66
2022/06/17 03:57:10;;;;;;;6.05;4.40;;;32.10;97.80;;;;;;4177131;28;20068;-66
2022/06/17 03:59:18;;;;;;;8.10;4.55;;;32.10;97.40;;;;;;4172159;28;20119;-66
2022/06/17 04:01:45;;;;;;;6.68;4.30;;;32.20;97.70;;;;;;4177110;28;20057;-66
2022/06/17 04:03:57;;;;;;;7.47;4.43;;;32.20;97.30;;;;;;4193469;28;20579;-67
2022/06/17 04:06:14;;;;;;;8.90;4.47;;;32.20;97.50;;;;;;4176843;28;20049;-66
2022/06/17 04:08:26;;;;;;;7.43;4.32;;;32.30;98.00;;;;;;4161446;28;20077;-67
2022/06/17 04:10:31;;;;;;;5.50;4.25;;;32.40;97.60;;;;;;4175285;28;20048;-65
2022/06/17 04:12:38;;;;;;;6.78;4.47;;;32.50;97.70;;;;;;4160920;28;20569;-65
2022/06/17 04:14:59;;;;;;;7.18;4.40;;;32.50;97.80;;;;;;4178536;28;20068;-65
2022/06/17 04:17:20;;;;;;;6.75;4.38;;;32.50;97.60;;;;;;4164101;28;20042;-66
2022/06/17 04:19:29;;;;;;;9.45;5.30;;;32.50;97.60;;;;;;4175321;28;20037;-66
2022/06/17 04:21:36;;;;;;;6.00;5.35;;;32.50;97.70;;;;;;4180199;28;20411;-67
2022/06/17 04:23:41;;;;;;;6.53;5.18;;;32.50;98.10;;;;;;4179949;28;20044;-65
2022/06/17 04:26:25;;;;;;;9.07;5.07;;;32.40;98.00;;;;;;4172638;28;20076;-65
2022/06/17 04:28:48;;;;;;;7.40;4.90;;;32.60;97.60;;;;;;4179442;28;20052;-65
2022/06/17 04:30:59;;;;;;;8.32;4.85;;;32.80;96.80;;;;;;4172944;28;20123;-65
2022/06/17 04:33:21;;;;;;;7.60;5.32;;;32.80;95.90;;;;;;4182037;28;20060;-65
2022/06/17 04:35:30;;;;;;;6.15;4.97;;;32.80;96.10;;;;;;4196609;28;20044;-65
2022/06/17 04:37:35;;;;;;;6.15;4.90;;;32.90;96.20;;;;;;4179966;28;20517;-65
2022/06/17 04:39:58;;;;;;;5.40;4.88;;;33.00;96.50;;;;;;4178672;28;20044;-65
2022/06/17 04:42:40;;;;;;;5.82;5.10;;;33.20;97.00;;;;;;4180107;28;20094;-65
2022/06/17 04:44:50;;;;;;;9.82;5.55;;;33.10;96.90;;;;;;4179449;28;20187;-65
2022/06/17 04:47:18;;;;;;;8.98;5.03;;;33.20;96.80;;;;;;4163549;28;20096;-65
2022/06/17 04:49:28;;;;;;;8.57;5.20;;;33.30;96.20;;;;;;4158202;28;20058;-66
2022/06/17 04:51:34;;;;;;;7.93;5.28;;;33.50;96.10;;;;;;4167179;28;20112;-65
2022/06/17 04:53:45;;;;;;;6.93;5.30;;;33.60;96.00;;;;;;4179583;28;20092;-65
2022/06/17 04:56:32;;;;;;;8.73;5.40;;;33.60;95.70;;;;;;4180700;28;20037;-65
2022/06/17 04:58:52;;;;;;;7.72;4.70;;;33.70;95.80;;;;;;4179333;28;20150;-65
2022/06/17 05:00:58;;;;;;;5.32;4.70;;;33.70;95.40;;;;;;4148454;28;20137;-65
2022/06/17 05:03:28;;;;;;;7.63;5.55;;;33.60;96.00;;;;;;4177840;28;20040;-65
2022/06/17 05:05:46;;;;;;;8.95;5.78;;;33.60;96.00;;;;;;4179645;28;20041;-65
2022/06/17 05:07:53;;;;;;;11.23;5.47;;;33.80;96.20;;;;;;4179830;28;20088;-65
2022/06/17 05:10:18;;;;;;;6.40;4.90;;;33.70;96.20;;;;;;4164894;28;20132;-65
2022/06/17 05:12:36;;;;;;;9.32;5.47;;;33.80;96.10;;;;;;4171439;28;20076;-65
2022/06/17 05:14:53;;;;;;;6.53;4.88;;;33.70;95.90;;;;;;4173756;28;20049;-65
2022/06/17 05:17:00;;;;;;;6.50;4.90;;;33.60;96.40;;;;;;4168117;28;20048;-65
2022/06/17 05:19:05;;;;;;;7.65;4.53;;;33.60;95.60;;;;;;4179692;28;20076;-64
2022/06/17 05:21:21;;;;;;;6.95;4.88;;;33.60;96.10;;;;;;4176934;28;20053;-64
2022/06/17 05:23:39;;;;;;;6.93;4.90;;;33.60;95.90;;;;;;4174680;28;20052;-65
2022/06/17 05:25:48;;;;;;;7.20;4.78;;;33.70;95.90;;;;;;4176541;28;20136;-65
2022/06/17 05:27:53;;;;;;;7.72;4.97;;;33.90;95.40;;;;;;4179661;28;20565;-65
2022/06/17 05:30:00;;;;;;;7.68;5.30;;;33.80;95.70;;;;;;4161934;28;20060;-65
2022/06/17 05:32:14;;;;;;;5.47;4.85;;;33.70;95.70;;;;;;4175989;28;20057;-65
2022/06/17 05:34:25;;;;;;;6.22;4.50;;;33.60;95.90;;;;;;4176257;28;20119;-65
2022/06/17 05:36:37;;;;;;;8.75;5.35;;;33.50;96.00;;;;;;4153115;28;20037;-65
2022/06/17 05:38:43;;;;;;;8.50;5.38;;;33.70;95.90;;;;;;4179985;28;20629;-65
2022/06/17 05:40:49;;;;;;;8.00;5.25;;;34.00;95.40;;;;;;4177552;28;20566;-65
2022/06/17 05:42:57;;;;;;;7.72;5.35;;;33.90;95.50;;;;;;4176747;28;20048;-65
2022/06/17 05:45:18;;;;;;;10.70;5.20;;;34.10;95.20;;;;;;4178492;28;20045;-65
2022/06/17 05:47:48;;;;;;;10.15;5.32;;;34.00;95.70;;;;;;4178077;28;20056;-65
2022/06/17 05:50:05;;;;;;;7.75;4.63;;;33.90;95.60;;;;;;4160965;28;20936;-65
2022/06/17 05:52:33;;;;;;;6.57;4.70;;;33.80;95.70;;;;;;4176331;28;20044;-65
2022/06/17 05:54:49;;;;;;;6.93;4.50;;;33.80;95.40;;;;;;4180750;28;20048;-65
2022/06/17 05:56:57;;;;;;;6.53;4.57;;;33.90;95.00;;;;;;4169631;28;20048;-65
2022/06/17 05:59:07;;;;;;;7.97;4.85;;;34.00;95.20;;;;;;4154066;28;20056;-65
2022/06/17 06:01:13;;;;;;;6.15;4.57;;;34.30;94.30;;;;;;4177279;28;20811;-65
2022/06/17 06:03:20;;;;;;;4.65;4.05;;;34.50;93.90;;;;;;4177287;28;20775;-65
2022/06/17 06:05:27;;;;;;;7.60;4.40;;;34.50;93.80;;;;;;4174200;28;20400;-65
2022/06/17 06:07:32;;;;;;;5.72;4.15;;;34.60;93.80;;;;;;4163905;28;20128;-64
2022/06/17 06:09:40;;;;;;;8.07;3.80;;;34.80;94.10;;;;;;4173092;28;20059;-65
2022/06/17 06:11:44;;;;;;;8.13;3.80;;;35.00;94.00;;;;;;4185692;28;20048;-65
2022/06/17 06:13:52;;;;;;;5.15;4.07;;;35.00;93.90;;;;;;4168049;28;20067;-65
2022/06/17 06:15:58;;;;;;;5.43;3.92;;;34.70;93.60;;;;;;4176111;28;20049;-65
2022/06/17 06:18:27;;;;;;;8.23;3.80;;;34.60;94.00;;;;;;4183890;28;20049;-65
2022/06/17 06:20:34;;;;;;;5.78;4.30;;;34.90;93.80;;;;;;4171308;28;20063;-65
2022/06/17 06:22:42;;;;;;;8.50;4.60;;;34.70;93.90;;;;;;4171318;28;20084;-65
2022/06/17 06:24:46;;;;;;;7.38;4.68;;;34.60;94.20;;;;;;4170855;28;20045;-64
2022/06/17 06:26:53;;;;;;;7.68;4.20;;;34.40;94.30;;;;;;4170973;28;20079;-65
2022/06/17 06:29:10;;;;;;;7.38;4.82;;;34.40;94.50;;;;;;4168718;28;20609;-66
2022/06/17 06:31:29;;;;;;;7.63;4.93;;;34.40;94.60;;;;;;4172103;28;20126;-63
2022/06/17 06:33:40;;;;;;;5.75;4.30;;;34.70;94.90;;;;;;4172815;28;20056;-63
2022/06/17 06:35:46;;;;;;;7.00;4.25;;;34.80;93.60;;;;;;4168284;28;20037;-63
2022/06/17 06:37:51;;;;;;;8.52;3.92;;;34.70;93.70;;;;;;4174445;28;20041;-63
2022/06/17 06:39:56;;;;;;;6.75;4.03;;;34.60;93.80;;;;;;4170051;28;20116;-63
2022/06/17 06:42:08;;;;;;;6.90;4.57;;;34.40;93.90;;;;;;4170997;28;20057;-63
2022/06/17 06:44:32;;;;;;;5.63;4.10;;;34.40;94.30;;;;;;4167053;28;20048;-63
2022/06/17 06:46:45;;;;;;;;;;;34.70;94.20;;;;;;4170308;28;20057;-63
2022/06/17 06:49:02;;;;;;;5.68;4.32;;;35.00;94.20;;;;;;4174548;28;20315;-62
2022/06/17 06:51:09;;;;;;;7.47;4.28;;;34.70;94.00;;;;;;4167097;28;20049;-62
2022/06/17 06:53:16;;;;;;;7.53;4.40;;;34.50;94.30;;;;;;4170898;28;20136;-63
2022/06/17 06:55:23;;;;;;;7.70;4.50;;;34.40;93.90;;;;;;4168852;28;20045;-62
2022/06/17 06:57:30;;;;;;;6.47;4.28;;;34.20;94.00;;;;;;4176795;28;20096;-62
2022/06/17 06:59:37;;;;;;;6.40;4.68;;;34.30;94.10;;;;;;4194006;28;20052;-62
2022/06/17 07:01:42;;;;;;;7.03;4.20;;;34.30;94.00;;;;;;4178946;28;20045;-63
2022/06/17 07:03:47;;;;;;;6.57;4.40;;;34.30;94.10;;;;;;4181469;28;20045;-62
2022/06/17 07:05:59;;;;;;;5.60;3.90;;;34.40;94.10;;;;;;4176140;28;20083;-62
2022/06/17 07:08:06;;;;;;;6.20;3.72;;;34.30;93.30;;;;;;4177100;28;20041;-62
2022/06/17 07:10:14;;;;;;;5.30;3.53;;;34.10;93.70;;;;;;4179249;28;20603;-62
2022/06/17 07:12:20;;;;;;;4.82;3.60;;;34.10;93.90;;;;;;4173141;28;20408;-62
2022/06/17 07:14:28;;;;;;;4.07;3.40;;;34.50;93.60;;;;;;4179117;28;20048;-62
2022/06/17 07:16:32;;;;;;;6.75;3.60;;;34.90;93.00;;;;;;4175736;28;20503;-63
2022/06/17 07:18:39;;;;;;;5.05;3.50;;;35.00;93.20;;;;;;4162710;28;20104;-63
2022/06/17 07:20:48;;;;;;;6.30;3.97;;;34.80;93.10;;;;;;4178326;28;20110;-63
2022/06/17 07:22:53;;;;;;;8.75;4.38;;;34.60;93.40;;;;;;4175464;28;20111;-62
2022/06/17 07:25:00;;;;;;;6.65;4.00;;;34.40;93.10;;;;;;4179118;28;20057;-64
2022/06/17 07:27:10;;;;;;;5.70;3.80;;;34.30;93.40;;;;;;4176483;28;20535;-62
2022/06/17 07:29:22;;;;;;;4.63;3.55;;;34.20;93.00;;;;;;4177863;28;20044;-63
2022/06/17 07:31:30;;;;;;;7.32;4.13;;;34.10;93.30;;;;;;4176823;28;20080;-62
2022/06/17 07:33:35;;;;;;;9.75;4.25;;;34.10;93.00;;;;;;4180828;28;20041;-62
2022/06/17 07:35:41;;;;;;;8.23;3.60;;;34.10;93.20;;;;;;4178370;28;20049;-63
2022/06/17 07:40:04;;;;;;;7.72;3.60;;;34.50;93.20;;;;;;4170906;28;20049;-62
2022/06/17 07:42:08;;;;;;;6.00;3.58;;;34.40;93.10;;;;;;4179331;28;20045;-63
2022/06/17 07:44:17;;;;;;;5.60;3.80;;;34.50;93.30;;;;;;4176208;28;20056;-62
2022/06/17 07:46:22;;;;;;;4.13;3.17;;;34.40;93.10;;;;;;4192928;28;20136;-62
2022/06/17 07:48:27;;;;;;;4.78;3.20;;;34.40;93.20;;;;;;4178405;28;20052;-62
2022/06/17 07:50:33;;;;;;;4.85;3.30;;;34.50;93.10;;;;;;4180418;28;20057;-63
2022/06/17 07:52:43;;;;;;;5.10;3.55;;;34.70;93.20;;;;;;4175163;28;20041;-63
2022/06/17 07:54:47;;;;;;;6.20;3.50;;;34.80;92.70;;;;;;4186737;28;20068;-63
2022/06/17 07:56:54;;;;;;;5.57;3.90;;;34.70;92.80;;;;;;4181245;28;20459;-63
2022/06/17 07:59:01;;;;;;;7.22;4.40;;;34.70;93.10;;;;;;4184989;28;20511;-63
2022/06/17 08:01:06;;;;;;;6.60;4.53;;;34.80;93.00;;;;;;4181290;28;20091;-63
2022/06/17 08:03:13;;;;;;;7.82;4.00;;;34.90;92.60;;;;;;4185113;28;20044;-62
2022/06/17 08:05:17;;;;;;;6.45;4.10;;;34.90;92.40;;;;;;4182775;28;20060;-62
2022/06/17 08:07:22;;;;;;;7.45;4.82;;;34.80;92.40;;;;;;4180930;28;20091;-62
2022/06/17 08:09:30;;;;;;;7.57;5.35;;;34.70;92.60;;;;;;4160696;28;20148;-63
2022/06/17 08:11:36;;;;;;;10.57;5.88;;;34.70;92.60;;;;;;4180519;28;20044;-63
2022/06/17 08:13:41;;;;;;;11.88;6.82;;;34.60;92.50;;;;;;4181077;28;20387;-63
2022/06/17 08:15:50;;;;;;;12.52;7.55;;;34.60;92.70;;;;;;4179206;28;20051;-62
2022/06/17 08:17:55;;;;;;;11.98;7.38;;;34.50;92.90;;;;;;4180137;28;20044;-63
2022/06/17 08:19:59;;;;;;;10.93;6.85;;;34.50;93.10;;;;;;4178958;28;20430;-63
2022/06/17 08:22:06;;;;;;;7.75;5.82;;;34.40;93.20;;;;;;4180106;28;20037;-62
2022/06/17 08:24:13;;;;;;;10.52;6.18;;;34.30;93.10;;;;;;4164464;28;20096;-62
2022/06/17 08:26:17;;;;;;;8.73;6.28;;;34.20;92.90;;;;;;4179241;28;20033;-63
2022/06/17 08:28:25;;;;;;;9.02;6.05;;;34.10;93.30;;;;;;4171610;28;20079;-63
2022/06/17 08:30:32;;;;;;;10.60;6.95;;;34.00;94.10;;;;;;4182454;28;20048;-63
2022/06/17 08:32:53;;;;;;;11.13;8.25;;;33.90;94.10;;;;;;4179077;28;20041;-63
2022/06/17 08:35:00;;;;;;;12.25;7.03;;;33.90;93.60;;;;;;4183452;28;20115;-63
2022/06/17 08:37:07;;;;;;;12.10;6.93;;;33.90;93.90;;;;;;4177808;28;20049;-62
2022/06/17 08:39:11;;;;;;;6.95;5.30;;;33.80;93.70;;;;;;4196021;28;20514;-63
2022/06/17 08:41:38;;;;;;;6.90;5.40;;;33.80;93.50;;;;;;4185438;28;20040;-62
2022/06/17 08:43:57;;;;;;;10.07;5.47;;;33.80;92.40;;;;;;4176605;28;20411;-63
2022/06/17 08:46:34;;;;;;;7.57;5.25;;;33.70;92.30;;;;;;4178600;28;20047;-62
2022/06/17 08:49:04;;;;;;;7.22;5.32;;;33.70;92.10;;;;;;4169473;28;20749;-62
2022/06/17 08:51:41;;;;;;;7.18;5.15;;;33.60;92.50;;;;;;4177556;28;20095;-62
2022/06/17 08:54:06;;;;;;;14.30;10.50;;;33.60;92.70;;;;;;4175236;28;20077;-63
2022/06/17 08:56:27;;;;;;;10.65;8.52;;;33.50;93.20;;;;;;4180232;28;20049;-62
2022/06/17 08:58:48;;;;;;;10.52;8.63;;;33.50;92.70;;;;;;4173138;28;20053;-62
2022/06/17 09:01:12;;;;;;;11.13;10.00;;;33.50;92.80;;;;;;4174471;28;20041;-63
2022/06/17 09:03:51;;;;;;;9.15;8.25;;;33.40;92.70;;;;;;4182584;28;20132;-62
2022/06/17 09:06:28;;;;;;;11.18;3.67;;;33.40;92.50;;;;;;4176434;28;20083;-63
2022/06/17 09:09:12;;;;;;;4.28;1.88;;;32.70;91.30;;;;;;4178370;28;20075;-62
2022/06/17 09:11:41;;;;;;;29.58;3.10;;;32.00;91.80;;;;;;4180343;28;20507;-62
2022/06/17 09:14:13;;;;;;;7.40;2.30;;;31.50;92.40;;;;;;4177660;28;20041;-63
2022/06/17 09:16:57;;;;;;;8.18;2.28;;;31.20;92.10;;;;;;4179991;28;20540;-63
2022/06/17 09:19:04;;;;;;;8.00;2.65;;;30.60;93.60;;;;;;4176416;28;20119;-63
2022/06/17 09:21:27;;;;;;;8.13;3.00;;;30.10;95.60;;;;;;4180125;28;20381;-64
2022/06/17 09:23:34;;;;;;;6.40;2.70;;;28.20;99.90;;;;;;4178413;28;20037;-64
2022/06/17 09:25:43;;;;;;;9.30;3.67;;;29.00;99.20;;;;;;4161254;28;20551;-64
2022/06/17 09:27:47;;;;;;;9.93;3.33;;;28.40;99.90;;;;;;4179031;28;20452;-64
2022/06/17 09:30:06;;;;;;;4.47;2.58;;;28.30;99.90;;;;;;4178630;28;20132;-64
2022/06/17 09:32:39;;;;;;;8.75;2.20;;;28.40;99.80;;;;;;4173953;28;20462;-64
2022/06/17 09:35:05;;;;;;;5.65;2.55;;;28.30;99.20;;;;;;4183878;28;20724;-64
2022/06/17 09:37:42;;;;;;;8.40;2.60;;;28.20;99.80;;;;;;4177127;28;20454;-66
2022/06/17 09:40:09;;;;;;;5.68;3.10;;;28.20;98.10;;;;;;4176411;28;20052;-65
2022/06/17 09:42:21;;;;;;;8.18;3.20;;;28.40;99.10;;;;;;4171211;28;20537;-63
2022/06/17 09:44:46;;;;;;;5.43;3.13;;;28.50;99.90;;;;;;4178952;28;20056;-64
2022/06/17 09:47:17;;;;;;;4.60;2.97;;;28.70;99.90;;;;;;4179496;28;20033;-64
2022/06/17 09:49:47;;;;;;;5.43;3.13;;;28.70;99.90;;;;;;4170147;28;20133;-64
2022/06/17 09:52:19;;;;;;;5.32;2.60;;;28.50;99.90;;;;;;4179192;28;20048;-64
2022/06/17 09:54:32;;;;;;;7.75;3.95;;;28.60;99.70;;;;;;4174590;28;20053;-64
2022/06/17 09:57:09;;;;;;;6.60;3.95;;;28.40;99.80;;;;;;4173169;28;20127;-64
2022/06/17 09:59:54;;;;;;;5.63;3.40;;;28.00;99.90;;;;;;4179589;28;20051;-64
2022/06/17 10:02:33;;;;;;;6.75;3.90;;;28.30;99.90;;;;;;4173590;28;20076;-65
2022/06/17 10:04:40;;;;;;;8.88;4.40;;;28.40;99.90;;;;;;4180619;28;20068;-64
2022/06/17 10:07:06;;;;;;;6.60;3.60;;;28.20;99.90;;;;;;4176329;28;20049;-64
2022/06/17 10:09:52;;;;;;;7.82;3.13;;;28.40;99.90;;;;;;4161049;28;20107;-64
2022/06/17 10:12:35;;;;;;;6.03;3.10;;;28.30;99.90;;;;;;4176759;28;20080;-64
2022/06/17 10:15:08;;;;;;;9.20;3.58;;;28.40;99.90;;;;;;4181934;28;20045;-65
2022/06/17 10:20:09;;;;;;;10.27;4.03;;;28.50;99.90;;;;;;4179436;28;20052;-65
2022/06/17 10:22:20;;;;;;;16.45;5.88;;;28.40;99.90;;;;;;4174280;28;20071;-66
2022/06/17 10:24:57;;;;;;;19.20;6.75;;;28.30;99.90;;;;;;4177240;28;20131;-66
2022/06/17 10:27:27;;;;;;;28.77;8.98;;;28.00;99.90;;;;;;4176528;28;20040;-67
2022/06/17 10:30:14;;;;;;;33.65;10.65;;;27.90;99.90;;;;;;4178702;28;20439;-64
2022/06/17 10:32:18;;;;;;;23.17;8.60;;;28.20;99.90;;;;;;4168913;28;20049;-65
2022/06/17 10:34:29;;;;;;;12.02;5.65;;;28.10;99.90;;;;;;4185062;28;20072;-65
2022/06/17 10:36:39;;;;;;;12.80;6.07;;;27.90;99.90;;;;;;4179573;28;20029;-65
2022/06/17 10:38:46;;;;;;;8.80;5.22;;;27.70;99.90;;;;;;4178176;28;20052;-65
2022/06/17 10:40:50;;;;;;;6.65;4.32;;;27.70;99.90;;;;;;4179329;28;20099;-66
2022/06/17 10:42:59;;;;;;;7.95;4.20;;;27.80;99.90;;;;;;4175277;28;20443;-66
2022/06/17 10:45:09;;;;;;;4.82;3.63;;;27.80;99.90;;;;;;4182338;28;20056;-66
2022/06/17 10:47:37;;;;;;;5.18;3.15;;;27.60;99.90;;;;;;4169312;28;20044;-66
2022/06/17 10:49:47;;;;;;;11.13;4.53;;;27.40;99.90;;;;;;4179379;28;20091;-65
2022/06/17 10:51:54;;;;;;;6.72;3.45;;;27.70;99.90;;;;;;4178895;28;20447;-66
2022/06/17 10:54:01;;;;;;;6.30;3.50;;;27.50;99.90;;;;;;4176818;28;20045;-66
2022/06/17 10:56:09;;;;;;;3.60;2.67;;;27.70;99.90;;;;;;4181713;28;20438;-66
2022/06/17 10:58:19;;;;;;;8.25;3.30;;;27.80;99.90;;;;;;4175976;28;20044;-65
2022/06/17 11:00:25;;;;;;;11.00;3.67;;;28.00;99.90;;;;;;4179164;28;20107;-65
2022/06/17 11:02:32;;;;;;;14.27;4.25;;;28.20;99.90;;;;;;4161608;28;20104;-66
2022/06/17 11:04:39;;;;;;;12.07;4.10;;;28.40;99.90;;;;;;4181245;28;20048;-65
2022/06/17 11:06:52;;;;;;;8.18;4.05;;;28.50;99.90;;;;;;4178548;28;20063;-65
2022/06/17 11:08:59;;;;;;;7.22;3.33;;;28.50;99.90;;;;;;4176941;28;20045;-65
2022/06/17 11:13:26;;;;;;;7.18;3.88;;;28.50;99.90;;;;;;4176644;28;20044;-66
2022/06/17 11:15:55;;;;;;;7.78;3.40;;;28.40;99.90;;;;;;4186632;28;20045;-65
2022/06/17 11:18:08;;;;;;;8.98;4.63;;;28.40;99.90;;;;;;4170891;28;20041;-66
2022/06/17 11:20:32;;;;;;;10.95;5.50;;;28.30;99.90;;;;;;4176424;28;20140;-66
2022/06/17 11:23:16;;;;;;;10.15;5.45;;;28.30;99.90;;;;;;4152120;28;20049;-66
2022/06/17 11:25:40;;;;;;;7.22;4.93;;;28.40;99.90;;;;;;4159399;28;20025;-65
2022/06/17 11:27:50;;;;;;;10.73;5.63;;;28.50;99.90;;;;;;4158774;28;20383;-65
2022/06/17 11:30:21;;;;;;;6.82;5.40;;;28.50;99.90;;;;;;4119966;28;20149;-66
2022/06/17 11:32:32;;;;;;;8.77;4.68;;;28.50;99.90;;;;;;4158906;28;20065;-65
2022/06/17 11:34:47;;;;;;;8.82;3.33;;;28.50;99.90;;;;;;4135804;28;20578;-66
2022/06/17 11:36:59;;;;;;;6.07;3.90;;;28.50;99.90;;;;;;4136312;28;20404;-65
2022/06/17 11:39:41;;;;;;;9.68;3.42;;;28.40;99.90;;;;;;4151259;28;20065;-66
2022/06/17 11:41:51;;;;;;;6.28;3.15;;;28.40;99.90;;;;;;4151851;28;20265;-67
2022/06/17 11:44:08;;;;;;;4.43;3.22;;;28.30;99.90;;;;;;4142601;28;20046;-65
2022/06/17 11:46:26;;;;;;;7.60;4.10;;;28.40;99.90;;;;;;4153806;28;20046;-66
2022/06/17 11:48:31;;;;;;;6.35;3.55;;;28.40;99.90;;;;;;4169487;28;20053;-66
2022/06/17 11:50:42;;;;;;;7.93;3.80;;;28.40;99.90;;;;;;4170144;28;20048;-67